LHBP/BUD METAR and TAF weather

Enter ICAO airport designator
Station Type Date Time Source
LHBP METAR 2021/03/03 01:30 UTC NOAA

LHBP 030130Z 00000KT 7000 NSC M02/M03 Q1032 NOSIG


Station Type Date Time Source
LHBP Decoded METAR 2021/03/03 01:30 UTC NOAA

Budapest / Ferihegy, Hungary (LHBP) 47-26N 019-16E 185M
Mar 02, 2021 - 08:30 PM EST / 2021.03.03 0130 UTC
Wind: Calm:0
Visibility: 4 mile(s):0
Temperature: 28 F (-2 C)
Dew Point: 26 F (-3 C)
Relative Humidity: 92%
Pressure (altimeter): 30.47 in. Hg (1032 hPa)
ob: LHBP 030130Z 00000KT 7000 NSC M02/M03 Q1032 NOSIG
cycle: 1

Station Type Date Time Source
LHBP TAF 2021/03/02 18:29 UTC NOAA

TAF LHBP 021715Z 0218/0318 VRB03KT CAVOK
TEMPO 0304/0306 MIFG
BECMG 0309/0311 23007KT

Example: see airport list